Time;durP1;ratioP1;P1;durP2;ratioP2;P2;SDS_P1;SDS_P2;PMS_P1;PMS_P2;Temp;Humidity;BMP_temperature;BMP_pressure;BME280_temperature;BME280_humidity;BME280_pressure;Samples;Min_cycle;Max_cycle;Signal;HPM_P1;HPM_P2
2022/11/02 00:01:20;;;;;;;;;;;;;;;1.70;78.33;101947.55;1896933;76;20106;-56
2022/11/02 00:03:48;;;;;;;;;;;;;;;1.72;78.31;101949.74;1896938;76;20145;-57
2022/11/02 00:06:17;;;;;;;;;;;;;;;1.71;78.74;101949.28;1896932;76;20114;-57
2022/11/02 00:08:45;;;;;;;;;;;;;;;1.69;79.04;101954.88;1897037;76;20122;-56
2022/11/02 00:11:13;;;;;;;;;;;;;;;1.65;79.11;101937.50;1897018;76;20150;-56
2022/11/02 00:13:41;;;;;;;;;;;;;;;1.65;79.23;101937.50;1896869;75;20111;-56
2022/11/02 00:16:10;;;;;;;;;;;;;;;1.59;79.27;101937.41;1896931;76;20118;-56
2022/11/02 00:18:38;;;;;;;;;;;;;;;1.57;79.42;101936.48;1897100;76;20120;-56
2022/11/02 00:21:07;;;;;;;;;;;;;;;1.56;79.88;101933.45;1896841;76;20104;-57
2022/11/02 00:23:34;;;;;;;;;;;;;;;1.60;79.60;101936.54;1896815;76;20124;-55
2022/11/02 00:26:02;;;;;;;;;;;;;;;1.62;79.70;101929.66;1877882;76;20102;-54
2022/11/02 00:28:31;;;;;;;;;;;;;;;1.63;79.69;101928.81;1865140;77;20114;-54
2022/11/02 00:30:59;;;;;;;;;;;;;;;1.60;79.79;101924.86;1865053;77;20149;-56
2022/11/02 00:33:27;;;;;;;;;;;;;;;1.60;79.89;101915.77;1865099;77;20119;-57
2022/11/02 00:35:55;;;;;;;;;;;;;;;1.58;79.85;101910.98;1824671;79;20117;-57
2022/11/02 00:38:23;;;;;;;;;;;;;;;1.61;79.62;101915.80;1865104;77;20149;-59
2022/11/02 00:40:51;;;;;;;;;;;;;;;1.64;79.62;101913.67;1857532;77;20110;-58
2022/11/02 00:43:19;;;;;;;;;;;;;;;1.68;79.54;101916.79;1852763;77;20150;-57
2022/11/02 00:45:47;;;;;;;;;;;;;;;1.69;79.51;101915.92;1862333;77;20127;-57
2022/11/02 00:48:15;;;;;;;;;;;;;;;1.73;79.27;101909.92;1894440;76;20149;-57
2022/11/02 00:50:42;;;;;;;;;;;;;;;1.76;79.15;101901.33;1852755;77;20119;-57
2022/11/02 00:53:11;;;;;;;;;;;;;;;1.76;79.25;101894.41;1861013;77;20103;-58
2022/11/02 00:55:40;;;;;;;;;;;;;;;1.77;79.22;101896.16;1895953;76;20257;-58
2022/11/02 00:58:08;;;;;;;;;;;;;;;1.81;78.91;101900.55;1843416;77;20128;-56
2022/11/02 01:00:36;;;;;;;;;;;;;;;1.80;79.04;101897.49;1825511;79;20179;-56
2022/11/02 01:03:04;;;;;;;;;;;;;;;1.81;78.88;101904.45;1849380;77;20159;-58
2022/11/02 01:05:32;;;;;;;;;;;;;;;1.82;79.01;101903.58;1856365;77;20220;-57
2022/11/02 01:07:59;;;;;;;;;;;;;;;1.81;79.37;101903.15;1856376;77;20145;-58
2022/11/02 01:10:27;;;;;;;;;;;;;;;1.83;79.21;101902.75;1898088;76;20108;-58
2022/11/02 01:12:55;;;;;;;;;;;;;;;1.86;79.26;101900.61;1897822;76;20116;-57
2022/11/02 01:15:24;;;;;;;;;;;;;;;1.87;79.30;101905.83;1898165;76;20166;-61
2022/11/02 01:17:52;;;;;;;;;;;;;;;1.92;79.16;101905.48;1898008;76;20116;-63
2022/11/02 01:20:20;;;;;;;;;;;;;;;1.92;79.38;101904.19;1898258;76;20143;-60
2022/11/02 01:22:48;;;;;;;;;;;;;;;1.89;79.57;101906.72;1856304;77;20107;-63
2022/11/02 01:25:16;;;;;;;;;;;;;;;1.85;79.62;101912.73;1856273;77;20146;-53
2022/11/02 01:27:44;;;;;;;;;;;;;;;1.81;80.24;101913.53;1871406;77;20195;-57
2022/11/02 01:30:13;;;;;;;;;;;;;;;1.75;80.50;101908.22;1856332;77;20150;-57
2022/11/02 01:32:41;;;;;;;;;;;;;;;1.72;80.62;101910.36;1856271;77;20509;-53
2022/11/02 01:35:09;;;;;;;;;;;;;;;1.72;80.74;101913.39;1871375;77;20114;-56
2022/11/02 01:37:38;;;;;;;;;;;;;;;1.71;80.90;101907.73;1856332;77;20397;-56
2022/11/02 01:40:08;;;;;;;;;;;;;;;1.70;81.02;101908.59;1871068;77;20120;-57
2022/11/02 01:42:36;;;;;;;;;;;;;;;1.70;81.38;101898.22;1856355;77;20135;-56
2022/11/02 01:45:04;;;;;;;;;;;;;;;1.73;81.19;101907.33;1856264;77;20162;-57
2022/11/02 01:47:36;;;;;;;;;;;;;;;1.74;81.14;101912.98;1871378;77;20113;-57
2022/11/02 01:50:06;;;;;;;;;;;;;;;1.71;81.27;101911.63;1855334;77;20126;-57
2022/11/02 01:52:37;;;;;;;;;;;;;;;1.67;81.07;101915.03;1856333;77;20103;-56
2022/11/02 01:55:15;;;;;;;;;;;;;;;1.66;81.19;101915.47;1871350;77;20121;-57
2022/11/02 01:57:46;;;;;;;;;;;;;;;1.69;81.22;101915.49;1878845;76;20117;-56
2022/11/02 02:00:16;;;;;;;;;;;;;;;1.71;81.18;101909.89;1883663;76;20202;-57
2022/11/02 02:02:45;;;;;;;;;;;;;;;1.76;81.10;101908.69;1884575;76;20457;-57
2022/11/02 02:05:15;;;;;;;;;;;;;;;1.77;81.18;101911.75;1867855;76;20139;-56
2022/11/02 02:07:43;;;;;;;;;;;;;;;1.76;81.24;101904.80;1884390;76;20120;-58
2022/11/02 02:10:12;;;;;;;;;;;;;;;1.76;81.68;101902.20;1884610;76;20371;-59
2022/11/02 02:12:41;;;;;;;;;;;;;;;1.78;81.74;101905.69;1884433;76;20180;-58
2022/11/02 02:15:11;;;;;;;;;;;;;;;1.86;81.71;101908.00;1884409;76;20371;-56
2022/11/02 02:17:50;;;;;;;;;;;;;;;1.92;81.72;101910.68;1879243;76;20129;-59
2022/11/02 02:20:19;;;;;;;;;;;;;;;2.00;81.55;101901.70;1875509;76;20139;-60
2022/11/02 02:23:00;;;;;;;;;;;;;;;2.07;81.70;101910.47;1844494;77;20111;-58
2022/11/02 02:25:35;;;;;;;;;;;;;;;2.16;81.50;101905.41;1875530;76;20121;-58
2022/11/02 02:28:22;;;;;;;;;;;;;;;2.27;81.28;101911.63;1875557;76;20147;-57
2022/11/02 02:30:59;;;;;;;;;;;;;;;2.35;81.00;101906.53;1811501;78;20106;-59
2022/11/02 02:33:31;;;;;;;;;;;;;;;2.42;80.69;101916.16;1862578;77;20122;-58
2022/11/02 02:36:00;;;;;;;;;;;;;;;2.45;80.64;101916.61;1875594;76;20144;-54
2022/11/02 02:38:35;;;;;;;;;;;;;;;2.46;80.62;101913.17;1875353;76;20109;-48
2022/11/02 02:41:08;;;;;;;;;;;;;;;2.47;80.63;101912.30;1844043;78;20142;-57
2022/11/02 02:43:40;;;;;;;;;;;;;;;2.46;80.63;101904.08;1862676;76;20125;-57
2022/11/02 02:46:09;;;;;;;;;;;;;;;2.49;80.57;101908.89;1854111;76;20239;-51
2022/11/02 02:48:38;;;;;;;;;;;;;;;2.53;80.52;101902.00;1890023;75;20147;-49
2022/11/02 02:51:10;;;;;;;;;;;;;;;2.57;80.39;101901.18;1862730;77;20167;-49
2022/11/02 02:53:40;;;;;;;;;;;;;;;2.61;80.15;101902.95;1862635;77;20134;-49
2022/11/02 02:56:09;;;;;;;;;;;;;;;2.64;80.06;101901.70;1862720;77;20114;-50
2022/11/02 02:58:39;;;;;;;;;;;;;;;2.62;80.22;101895.62;1862555;77;20630;-50
2022/11/02 03:01:08;;;;;;;;;;;;;;;2.60;80.62;101884.33;1861488;77;20158;-50
2022/11/02 03:03:36;;;;;;;;;;;;;;;2.61;80.60;101880.86;1867233;75;20118;-50
2022/11/02 03:06:07;;;;;;;;;;;;;;;2.65;80.52;101873.97;1909709;75;20165;-51
2022/11/02 03:08:38;;;;;;;;;;;;;;;2.68;80.56;101874.88;1909911;75;20413;-52
2022/11/02 03:11:11;;;;;;;;;;;;;;;2.72;80.51;101868.42;1888058;75;20373;-54
2022/11/02 03:13:59;;;;;;;;;;;;;;;2.77;80.51;101857.65;1881442;76;20116;-53
2022/11/02 03:16:29;;;;;;;;;;;;;;;2.82;80.73;101858.55;1862160;77;20110;-56
2022/11/02 03:19:04;;;;;;;;;;;;;;;2.88;80.59;101855.59;1898174;76;20168;-55
2022/11/02 03:21:33;;;;;;;;;;;;;;;2.94;80.44;101857.39;1931876;74;20145;-54
2022/11/02 03:24:14;;;;;;;;;;;;;;;3.01;80.38;101855.30;1931674;74;20422;-53
2022/11/02 03:26:44;;;;;;;;;;;;;;;3.06;80.45;101845.81;1931819;74;20102;-52
2022/11/02 03:29:17;;;;;;;;;;;;;;;3.13;80.73;101846.72;1932456;74;20122;-55
2022/11/02 03:31:47;;;;;;;;;;;;;;;3.21;80.63;101851.99;1886040;75;20135;-54
2022/11/02 03:34:24;;;;;;;;;;;;;;;3.28;80.81;101846.87;1873609;77;20140;-53
2022/11/02 03:37:04;;;;;;;;;;;;;;;3.36;80.66;101844.34;1873547;77;20421;-53
2022/11/02 03:39:39;;;;;;;;;;;;;;;3.46;80.66;101839.63;1873475;77;20159;-53
2022/11/02 03:42:10;;;;;;;;;;;;;;;3.54;80.57;101834.91;1820040;74;20151;-50
2022/11/02 03:44:39;;;;;;;;;;;;;;;3.59;80.64;101834.09;1848482;78;20127;-50
2022/11/02 03:47:09;;;;;;;;;;;;;;;3.62;80.61;101833.26;1845442;78;20424;-51
2022/11/02 03:49:39;;;;;;;;;;;;;;;3.65;80.42;101830.66;1848336;78;20107;-50
2022/11/02 03:52:09;;;;;;;;;;;;;;;3.66;80.39;101835.88;1848224;78;20166;-54
2022/11/02 03:54:42;;;;;;;;;;;;;;;3.65;80.27;101825.44;1848469;78;20139;-53
2022/11/02 03:57:11;;;;;;;;;;;;;;;3.66;80.17;101829.81;1846249;77;20123;-53
2022/11/02 03:59:40;;;;;;;;;;;;;;;3.65;80.19;101828.05;1804861;78;20109;-53
2022/11/02 04:02:09;;;;;;;;;;;;;;;3.62;80.18;101828.05;1834528;78;20150;-53
2022/11/02 04:04:39;;;;;;;;;;;;;;;3.57;80.10;101814.11;1834573;78;20111;-53
2022/11/02 04:07:07;;;;;;;;;;;;;;;3.51;80.21;101811.48;1835772;77;20229;-54
2022/11/02 04:09:35;;;;;;;;;;;;;;;3.45;80.16;101807.96;1832569;78;20171;-53
2022/11/02 04:14:49;;;;;;;;;;;;;;;3.37;80.27;101812.22;1817600;79;20122;-57
2022/11/02 04:20:06;;;;;;;;;;;;;;;3.33;80.40;101810.45;1838148;76;20416;-49
2022/11/02 04:25:20;;;;;;;;;;;;;;;3.23;80.66;101814.73;1848888;78;20131;-51
2022/11/02 04:28:09;;;;;;;;;;;;;;;3.22;80.65;101820.78;1848926;77;20147;-49
2022/11/02 04:30:39;;;;;;;;;;;;;;;3.25;80.77;101827.76;1846166;76;20181;-53
2022/11/02 04:35:54;;;;;;;;;;;;;;;3.34;80.68;101816.53;1847660;77;20204;-52
2022/11/02 04:38:41;;;;;;;;;;;;;;;3.41;80.77;101823.13;1848104;78;20115;-51
2022/11/02 04:41:41;;;;;;;;;;;;;;;3.49;80.83;101821.88;1822786;77;20403;-50
2022/11/02 04:44:13;;;;;;;;;;;;;;;3.57;80.71;101819.32;1816955;79;20231;-51
2022/11/02 04:46:42;;;;;;;;;;;;;;;3.65;80.63;101822.44;1817534;79;20113;-52
2022/11/02 04:49:11;;;;;;;;;;;;;;;3.75;80.54;101819.89;1817520;79;20122;-53
2022/11/02 04:51:39;;;;;;;;;;;;;;;3.84;80.39;101814.30;1819810;78;20173;-58
2022/11/02 04:54:07;;;;;;;;;;;;;;;3.97;80.31;101811.77;1817517;79;20122;-58
2022/11/02 04:56:37;;;;;;;;;;;;;;;4.09;80.35;101819.63;1817685;78;20159;-57
2022/11/02 04:59:06;;;;;;;;;;;;;;;4.24;80.26;101828.84;1817536;79;20117;-52
2022/11/02 05:01:35;;;;;;;;;;;;;;;4.45;80.12;101823.28;1819548;78;20376;-51
2022/11/02 05:04:04;;;;;;;;;;;;;;;4.67;79.82;101829.84;1817590;79;20121;-51
2022/11/02 05:06:33;;;;;;;;;;;;;;;4.83;79.58;101829.91;1817582;79;20125;-53
2022/11/02 05:09:01;;;;;;;;;;;;;;;4.95;79.33;101834.28;1817540;79;20149;-49
2022/11/02 05:11:29;;;;;;;;;;;;;;;5.08;79.09;101833.00;1819474;78;20202;-54
2022/11/02 05:13:58;;;;;;;;;;;;;;;5.16;78.86;101834.73;1817433;78;20120;-55
2022/11/02 05:16:27;;;;;;;;;;;;;;;5.21;78.71;101833.00;1822326;76;20391;-56
2022/11/02 05:18:55;;;;;;;;;;;;;;;5.25;78.60;101831.26;1873481;76;20113;-55
2022/11/02 05:21:23;;;;;;;;;;;;;;;5.27;78.56;101825.59;1848057;78;20461;-56
2022/11/02 05:23:51;;;;;;;;;;;;;;;5.27;78.51;101831.27;1847974;78;20119;-54
2022/11/02 05:26:19;;;;;;;;;;;;;;;5.25;78.73;101828.65;1848038;78;20147;-55
2022/11/02 05:28:51;;;;;;;;;;;;;;;5.30;78.73;101824.30;1848120;78;20115;-52
2022/11/02 05:31:18;;;;;;;;;;;;;;;5.41;78.63;101825.17;1819923;78;20151;-58
2022/11/02 05:33:46;;;;;;;;;;;;;;;5.61;78.56;101819.08;1817488;79;20121;-57
2022/11/02 05:36:15;;;;;;;;;;;;;;;5.90;78.39;101814.22;1817416;78;20120;-56
2022/11/02 05:38:45;;;;;;;;;;;;;;;6.26;78.50;101807.17;1817406;79;20168;-54
2022/11/02 05:41:13;;;;;;;;;;;;;;;6.77;78.40;101807.80;1819473;78;20121;-54
2022/11/02 05:43:41;;;;;;;;;;;;;;;7.37;78.41;101803.85;1817590;79;20485;-53
2022/11/02 05:46:10;;;;;;;;;;;;;;;8.06;78.14;101812.31;1817609;79;20518;-53
2022/11/02 05:48:38;;;;;;;;;;;;;;;8.96;77.82;101812.05;1817483;79;20121;-54
2022/11/02 05:51:06;;;;;;;;;;;;;;;9.91;77.26;101812.20;1818806;78;20180;-55
2022/11/02 05:53:37;;;;;;;;;;;;;;;10.70;75.93;101808.39;1817462;79;20120;-54
2022/11/02 05:56:04;;;;;;;;;;;;;;;11.41;74.27;101806.69;1817521;78;20126;-54
2022/11/02 05:58:32;;;;;;;;;;;;;;;12.05;72.35;101806.77;1817496;79;20109;-55
2022/11/02 06:01:01;;;;;;;;;;;;;;;12.69;70.73;101811.08;1819490;78;20154;-54
2022/11/02 06:03:29;;;;;;;;;;;;;;;13.38;70.01;101812.84;1817372;79;20157;-55
2022/11/02 06:05:57;;;;;;;;;;;;;;;13.82;67.94;101819.70;1817445;79;20137;-55
2022/11/02 06:08:25;;;;;;;;;;;;;;;14.29;66.40;101822.42;1817428;79;20122;-54
2022/11/02 06:10:53;;;;;;;;;;;;;;;14.03;67.10;101816.73;1817501;79;20152;-55
2022/11/02 06:13:21;;;;;;;;;;;;;;;13.96;66.65;101813.05;1819425;78;20125;-54
2022/11/02 06:15:49;;;;;;;;;;;;;;;14.85;65.99;101811.90;1817458;79;20172;-56
2022/11/02 06:18:17;;;;;;;;;;;;;;;15.49;65.56;101807.50;1843130;78;20189;-54
2022/11/02 06:20:45;;;;;;;;;;;;;;;16.11;65.39;101801.72;1847167;78;20127;-56
2022/11/02 06:23:16;;;;;;;;;;;;;;;16.46;64.16;101803.22;1848148;78;20150;-56
2022/11/02 06:25:43;;;;;;;;;;;;;;;16.85;64.16;101798.30;1848143;78;20123;-53
2022/11/02 06:28:11;;;;;;;;;;;;;;;17.33;63.36;101794.12;1848096;78;20119;-54
2022/11/02 06:30:39;;;;;;;;;;;;;;;17.78;63.66;101786.98;1845818;78;20123;-54
2022/11/02 06:33:06;;;;;;;;;;;;;;;18.23;62.76;101786.83;1848100;77;20151;-54
2022/11/02 06:35:34;;;;;;;;;;;;;;;18.78;61.83;101782.41;1848090;76;20202;-54
2022/11/02 06:38:02;;;;;;;;;;;;;;;19.46;61.44;101781.17;1848201;78;20146;-56
2022/11/02 06:40:30;;;;;;;;;;;;;;;20.13;60.91;101762.81;1845951;78;20123;-57
2022/11/02 06:43:00;;;;;;;;;;;;;;;20.66;59.91;101759.02;1860171;77;20543;-57
2022/11/02 06:45:27;;;;;;;;;;;;;;;21.25;59.63;101767.16;1836082;78;20123;-57
2022/11/02 06:47:55;;;;;;;;;;;;;;;21.59;58.09;101766.59;1867239;77;20169;-57
2022/11/02 06:50:23;;;;;;;;;;;;;;;21.12;59.44;101762.66;1866811;77;20121;-58
2022/11/02 06:52:51;;;;;;;;;;;;;;;20.76;59.83;101764.62;1866163;77;20223;-56
2022/11/02 06:55:19;;;;;;;;;;;;;;;20.20;60.50;101768.64;1836037;78;20217;-57
2022/11/02 06:57:47;;;;;;;;;;;;;;;19.48;60.77;101764.58;1867150;77;20109;-57
2022/11/02 07:00:18;;;;;;;;;;;;;;;18.86;61.62;101759.31;1836048;78;20198;-57
2022/11/02 07:02:46;;;;;;;;;;;;;;;18.19;62.20;101761.30;1864993;77;20122;-60
2022/11/02 07:05:14;;;;;;;;;;;;;;;17.36;63.00;101766.03;1836194;78;20119;-58
2022/11/02 07:07:42;;;;;;;;;;;;;;;16.71;63.44;101759.50;1867257;77;20156;-56
2022/11/02 07:10:10;;;;;;;;;;;;;;;15.93;61.77;101752.08;1835966;78;20108;-57
2022/11/02 07:12:38;;;;;;;;;;;;;;;15.18;60.11;101748.23;1864967;77;20125;-57
2022/11/02 07:15:07;;;;;;;;;;;;;;;14.74;58.77;101720.47;1836019;78;20119;-54
2022/11/02 07:17:36;;;;;;;;;;;;;;;14.51;59.09;101737.26;1850070;77;20127;-54
2022/11/02 07:20:04;;;;;;;;;;;;;;;14.26;58.87;101728.95;1836858;77;20116;-53
2022/11/02 07:22:32;;;;;;;;;;;;;;;14.59;58.96;101738.72;1806132;79;20122;-59
2022/11/02 07:25:00;;;;;;;;;;;;;;;15.25;58.52;101748.37;1806099;79;20438;-58
2022/11/02 07:27:27;;;;;;;;;;;;;;;15.90;56.95;101742.92;1806187;79;20154;-58
2022/11/02 07:29:57;;;;;;;;;;;;;;;16.48;55.16;101742.86;1815317;77;20167;-59
2022/11/02 07:32:24;;;;;;;;;;;;;;;16.66;53.57;101749.58;1867227;77;20418;-59
2022/11/02 07:34:52;;;;;;;;;;;;;;;16.31;54.15;101735.70;1836051;78;20108;-58
2022/11/02 07:37:20;;;;;;;;;;;;;;;16.09;54.76;101746.47;1867106;77;20156;-59
2022/11/02 07:39:50;;;;;;;;;;;;;;;15.91;55.29;101744.66;1829069;77;20146;-57
2022/11/02 07:42:18;;;;;;;;;;;;;;;15.74;54.93;101740.97;1871688;77;20117;-57
2022/11/02 07:44:47;;;;;;;;;;;;;;;15.59;55.17;101736.31;1871133;77;20121;-57
2022/11/02 07:47:15;;;;;;;;;;;;;;;15.50;55.43;101742.88;1871758;77;20434;-55
2022/11/02 07:49:43;;;;;;;;;;;;;;;15.48;55.42;101734.60;1871675;77;20117;-55
2022/11/02 07:52:11;;;;;;;;;;;;;;;15.53;55.05;101728.60;1846008;77;20164;-54
2022/11/02 07:54:39;;;;;;;;;;;;;;;15.59;55.17;101723.04;1840667;78;20120;-55
2022/11/02 07:57:07;;;;;;;;;;;;;;;15.71;54.68;101721.14;1840726;78;20158;-56
2022/11/02 07:59:35;;;;;;;;;;;;;;;15.91;54.06;101715.44;1840722;78;20120;-56
2022/11/02 08:02:03;;;;;;;;;;;;;;;16.21;53.08;101727.30;1841980;77;20128;-56
2022/11/02 08:04:31;;;;;;;;;;;;;;;16.44;52.32;101720.03;1840606;78;20206;-57
2022/11/02 08:06:59;;;;;;;;;;;;;;;16.49;52.64;101710.05;1840743;78;20124;-52
2022/11/02 08:09:27;;;;;;;;;;;;;;;16.50;51.97;101706.91;1840662;78;20127;-55
2022/11/02 08:11:56;;;;;;;;;;;;;;;16.50;51.90;101710.42;1835994;78;20171;-58
2022/11/02 08:14:24;;;;;;;;;;;;;;;16.71;51.19;101693.02;1867196;77;20121;-55
2022/11/02 08:16:52;;;;;;;;;;;;;;;16.72;51.65;101708.90;1835942;78;20119;-54
2022/11/02 08:19:20;;;;;;;;;;;;;;;16.75;50.82;101669.34;1835954;78;20146;-57
2022/11/02 08:21:48;;;;;;;;;;;;;;;16.93;50.56;101672.44;1867179;77;20152;-57
2022/11/02 08:24:16;;;;;;;;;;;;;;;17.02;50.58;101680.87;1836025;78;20174;-57
2022/11/02 08:26:44;;;;;;;;;;;;;;;17.06;50.61;101682.42;1867151;77;20125;-55
2022/11/02 08:29:12;;;;;;;;;;;;;;;16.95;49.75;101677.20;1835933;78;20116;-57
2022/11/02 08:31:40;;;;;;;;;;;;;;;17.01;49.84;101652.08;1842103;78;20194;-56
2022/11/02 08:34:07;;;;;;;;;;;;;;;17.03;49.35;101670.64;1840734;78;20120;-56
2022/11/02 08:36:35;;;;;;;;;;;;;;;17.33;48.89;101657.52;1840690;78;20154;-56
2022/11/02 08:39:03;;;;;;;;;;;;;;;17.59;48.21;101660.11;1840669;78;20120;-56
2022/11/02 08:41:31;;;;;;;;;;;;;;;17.25;48.67;101643.77;1842695;77;20126;-54
2022/11/02 08:43:59;;;;;;;;;;;;;;;17.44;48.73;101651.63;1827871;78;20117;-54
2022/11/02 08:46:27;;;;;;;;;;;;;;;18.89;45.95;101630.58;1817254;79;20173;-54
2022/11/02 08:48:55;;;;;;;;;;;;;;;19.48;43.40;101632.36;1817260;79;20121;-55
2022/11/02 08:51:23;;;;;;;;;;;;;;;20.16;43.00;101622.25;1819254;78;20156;-54
2022/11/02 08:53:51;;;;;;;;;;;;;;;21.13;40.66;101636.30;1817192;79;20121;-55
2022/11/02 08:56:19;;;;;;;;;;;;;;;21.45;40.23;101630.07;1817275;79;20109;-56
2022/11/02 08:58:46;;;;;;;;;;;;;;;21.19;41.21;101647.45;1817187;79;20184;-55
2022/11/02 09:01:14;;;;;;;;;;;;;;;21.74;41.19;101633.31;1819335;78;20123;-54
2022/11/02 09:03:42;;;;;;;;;;;;;;;22.55;38.69;101641.73;1817223;78;20109;-56
2022/11/02 09:06:10;;;;;;;;;;;;;;;22.79;37.51;101632.80;1817400;79;20125;-54
2022/11/02 09:08:38;;;;;;;;;;;;;;;23.08;37.12;101619.34;1817255;79;20109;-54
2022/11/02 09:11:06;;;;;;;;;;;;;;;22.91;36.65;101621.97;1817128;79;20161;-56
2022/11/02 09:13:33;;;;;;;;;;;;;;;22.70;36.64;101616.44;1843977;78;20113;-54
2022/11/02 09:16:01;;;;;;;;;;;;;;;22.03;37.64;101617.44;1847445;78;20150;-55
2022/11/02 09:18:30;;;;;;;;;;;;;;;21.34;38.66;101616.06;1819400;78;20118;-55
2022/11/02 09:20:59;;;;;;;;;;;;;;;20.94;39.19;101613.97;1818150;78;20118;-53
2022/11/02 09:23:26;;;;;;;;;;;;;;;21.00;39.26;101612.20;1817178;79;20152;-56
2022/11/02 09:25:54;;;;;;;;;;;;;;;21.60;38.93;101617.40;1817169;79;20188;-54
2022/11/02 09:28:22;;;;;;;;;;;;;;;22.28;38.19;101612.00;1817468;79;20391;-53
2022/11/02 09:30:50;;;;;;;;;;;;;;;22.49;36.90;101608.66;1819252;78;20152;-54
2022/11/02 09:33:18;;;;;;;;;;;;;;;22.35;37.20;101583.74;1817398;78;20110;-55
2022/11/02 09:35:48;;;;;;;;;;;;;;;22.30;37.43;101600.66;1817222;79;20153;-54
2022/11/02 09:38:21;;;;;;;;;;;;;;;22.28;37.09;101607.97;1817139;79;20121;-55
2022/11/02 09:41:03;;;;;;;;;;;;;;;22.06;37.45;101589.91;1817851;78;20126;-55
2022/11/02 09:43:51;;;;;;;;;;;;;;;22.23;37.36;101603.40;1818465;77;20152;-53
2022/11/02 09:46:20;;;;;;;;;;;;;;;21.70;37.76;101589.44;1831813;78;20124;-54
2022/11/02 09:48:52;;;;;;;;;;;;;;;21.19;39.38;101599.71;1824591;79;20207;-57
2022/11/02 09:51:24;;;;;;;;;;;;;;;21.58;38.69;101604.59;1797026;79;20154;-56
2022/11/02 09:53:53;;;;;;;;;;;;;;;21.93;38.17;101612.75;1824804;79;20097;-55
2022/11/02 09:56:22;;;;;;;;;;;;;;;21.83;38.46;101601.47;1824714;77;20109;-55
2022/11/02 09:58:51;;;;;;;;;;;;;;;21.69;38.42;101597.98;1824787;79;20117;-54
2022/11/02 10:01:37;;;;;;;;;;;;;;;21.58;38.40;101606.78;1825134;77;20243;-54
2022/11/02 10:04:08;;;;;;;;;;;;;;;20.38;40.19;101603.43;1834609;77;20187;-56
2022/11/02 10:06:37;;;;;;;;;;;;;;;20.25;40.85;101595.36;1825335;77;20125;-55
2022/11/02 10:09:09;;;;;;;;;;;;;;;20.85;39.69;101585.16;1824760;79;20152;-57
2022/11/02 10:11:38;;;;;;;;;;;;;;;21.37;39.00;101588.19;1854683;77;20202;-56
2022/11/02 10:14:10;;;;;;;;;;;;;;;21.24;38.63;101583.33;1824252;77;20187;-53
2022/11/02 10:16:39;;;;;;;;;;;;;;;20.23;40.16;101575.89;1825567;78;20127;-51
2022/11/02 10:19:09;;;;;;;;;;;;;;;19.71;41.33;101572.61;1847996;77;20155;-55
2022/11/02 10:21:38;;;;;;;;;;;;;;;18.99;42.59;101579.31;1794983;79;20170;-49
2022/11/02 10:24:11;;;;;;;;;;;;;;;18.66;43.68;101588.38;1794943;80;20167;-52
2022/11/02 10:26:42;;;;;;;;;;;;;;;18.69;43.92;101582.87;1828836;77;20152;-54
2022/11/02 10:29:16;;;;;;;;;;;;;;;18.35;44.49;101579.51;1832019;77;20160;-52
2022/11/02 10:31:44;;;;;;;;;;;;;;;17.86;45.42;101582.34;1832021;78;20105;-56
2022/11/02 10:34:26;;;;;;;;;;;;;;;17.49;46.13;101560.39;1832029;78;20125;-56
2022/11/02 10:37:01;;;;;;;;;;;;;;;17.08;47.27;101590.08;1834031;77;20394;-50
2022/11/02 10:39:30;;;;;;;;;;;;;;;16.78;48.09;101594.70;1831959;78;20523;-52
2022/11/02 10:42:02;;;;;;;;;;;;;;;16.55;48.76;101565.31;1832020;78;20129;-52
2022/11/02 10:44:32;;;;;;;;;;;;;;;16.32;49.75;101578.42;1824527;78;20125;-51
2022/11/02 10:47:04;;;;;;;;;;;;;;;16.15;50.02;101536.75;1827277;78;20132;-51
2022/11/02 10:49:49;;;;;;;;;;;;;;;16.04;50.62;101568.30;1848403;78;20115;-52
2022/11/02 10:52:17;;;;;;;;;;;;;;;16.40;50.29;101574.93;1817833;79;20203;-53
2022/11/02 10:54:46;;;;;;;;;;;;;;;16.46;49.79;101569.30;1848346;78;20119;-52
2022/11/02 10:57:16;;;;;;;;;;;;;;;16.31;49.96;101543.50;1818977;77;20121;-52
2022/11/02 10:59:43;;;;;;;;;;;;;;;16.23;50.24;101541.68;1817824;79;20113;-50
2022/11/02 11:02:12;;;;;;;;;;;;;;;16.37;50.40;101545.84;1817830;79;20153;-49
2022/11/02 11:04:41;;;;;;;;;;;;;;;16.90;49.22;101524.95;1817436;78;20458;-53
2022/11/02 11:07:14;;;;;;;;;;;;;;;16.68;49.25;101533.64;1814809;79;20117;-51
2022/11/02 11:09:46;;;;;;;;;;;;;;;16.48;50.02;101504.95;1816432;79;20383;-53
2022/11/02 11:12:19;;;;;;;;;;;;;;;16.81;49.68;101522.74;1816431;79;20212;-52
2022/11/02 11:14:46;;;;;;;;;;;;;;;16.99;49.12;101506.31;1807837;78;20382;-50
2022/11/02 11:17:15;;;;;;;;;;;;;;;17.63;47.82;101509.89;1842881;76;20121;-54
2022/11/02 11:19:44;;;;;;;;;;;;;;;18.36;46.38;101501.25;1836318;78;20121;-54
2022/11/02 11:22:26;;;;;;;;;;;;;;;19.04;45.29;101503.35;1857223;77;20174;-53
2022/11/02 11:24:55;;;;;;;;;;;;;;;19.08;44.27;101474.66;1833581;78;20114;-53
2022/11/02 11:27:23;;;;;;;;;;;;;;;18.80;44.29;101502.19;1832225;78;20111;-53
2022/11/02 11:29:55;;;;;;;;;;;;;;;18.59;44.62;101483.88;1835767;78;20111;-53
2022/11/02 11:32:25;;;;;;;;;;;;;;;18.46;44.91;101474.89;1835727;78;20151;-54
2022/11/02 11:34:54;;;;;;;;;;;;;;;18.01;45.43;101486.87;1848290;78;20385;-54
2022/11/02 11:37:22;;;;;;;;;;;;;;;17.89;45.68;101464.48;1819462;78;20113;-54
2022/11/02 11:39:52;;;;;;;;;;;;;;;17.75;45.94;101454.58;1817828;79;20187;-50
2022/11/02 11:42:21;;;;;;;;;;;;;;;17.80;46.10;101477.42;1848379;78;20389;-54
2022/11/02 11:44:56;;;;;;;;;;;;;;;18.04;45.83;101480.04;1848338;77;20401;-56
2022/11/02 11:47:26;;;;;;;;;;;;;;;17.98;46.11;101473.72;1840982;78;20115;-54
2022/11/02 11:49:55;;;;;;;;;;;;;;;17.64;46.53;101470.80;1854267;76;20377;-51
2022/11/02 11:52:24;;;;;;;;;;;;;;;17.04;47.52;101476.34;1891417;76;20113;-50
2022/11/02 11:54:52;;;;;;;;;;;;;;;16.69;48.49;101484.82;1835078;77;20126;-52
2022/11/02 11:57:26;;;;;;;;;;;;;;;16.36;48.65;101475.03;1820439;78;20124;-50
2022/11/02 11:59:57;;;;;;;;;;;;;;;16.13;49.18;101479.70;1850308;78;20111;-53
2022/11/02 12:02:26;;;;;;;;;;;;;;;16.05;49.58;101481.05;1848194;78;20201;-54
2022/11/02 12:04:58;;;;;;;;;;;;;;;15.99;49.95;101471.56;1818503;77;20142;-54
2022/11/02 12:07:27;;;;;;;;;;;;;;;15.90;50.25;101471.58;1819704;78;20156;-54
2022/11/02 12:10:05;;;;;;;;;;;;;;;15.86;50.50;101462.50;1790811;78;20147;-53
2022/11/02 12:12:47;;;;;;;;;;;;;;;15.80;50.87;101457.02;1787798;80;20127;-53
2022/11/02 12:15:19;;;;;;;;;;;;;;;15.68;51.29;101453.60;1815156;78;20109;-51
2022/11/02 12:17:48;;;;;;;;;;;;;;;15.64;51.76;101457.76;1837627;78;20127;-53
2022/11/02 12:20:36;;;;;;;;;;;;;;;15.56;51.90;101477.64;1847873;78;20119;-52
2022/11/02 12:23:05;;;;;;;;;;;;;;;15.47;51.99;101472.77;1848554;78;20229;-53
2022/11/02 12:25:53;;;;;;;;;;;;;;;15.36;52.18;101478.14;1848649;77;20123;-52
2022/11/02 12:28:28;;;;;;;;;;;;;;;15.26;53.02;101463.58;1842118;78;20331;-50
2022/11/02 12:31:06;;;;;;;;;;;;;;;15.22;53.35;101469.97;1757657;80;20132;-52
2022/11/02 12:33:45;;;;;;;;;;;;;;;15.23;53.25;101488.91;1816700;79;20638;-51
2022/11/02 12:36:14;;;;;;;;;;;;;;;15.25;53.42;101480.41;1776912;80;20123;-52
2022/11/02 12:38:52;;;;;;;;;;;;;;;15.19;53.62;101478.91;1785914;80;20115;-52
2022/11/02 12:41:21;;;;;;;;;;;;;;;15.12;54.08;101480.59;1813663;79;20394;-51
2022/11/02 12:43:51;;;;;;;;;;;;;;;15.06;54.63;101487.89;1815185;79;20114;-51
2022/11/02 12:46:36;;;;;;;;;;;;;;;15.06;54.83;101470.66;1816589;78;20390;-51
2022/11/02 12:49:18;;;;;;;;;;;;;;;14.97;55.20;101465.77;1836082;78;20381;-61
2022/11/02 12:51:56;;;;;;;;;;;;;;;14.87;55.77;101451.23;1885318;76;20163;-59
2022/11/02 12:54:25;;;;;;;;;;;;;;;14.86;55.95;101463.64;1880188;76;20165;-59
2022/11/02 12:56:53;;;;;;;;;;;;;;;14.82;56.25;101449.25;1847021;78;20197;-59
2022/11/02 12:59:23;;;;;;;;;;;;;;;14.75;56.68;101438.53;1848622;78;20119;-58
2022/11/02 13:01:52;;;;;;;;;;;;;;;14.69;56.86;101433.52;1845545;78;20162;-57
2022/11/02 13:04:21;;;;;;;;;;;;;;;14.60;56.87;101423.70;1848511;78;20127;-57
2022/11/02 13:06:53;;;;;;;;;;;;;;;14.58;57.11;101416.30;1847548;78;20153;-57